createdAt,value
2022-12-16T00:01:16.029Z,40.03
2022-12-16T00:03:48.550Z,37.70
2022-12-16T00:06:15.994Z,41.27
2022-12-16T00:08:42.725Z,39.13
2022-12-16T00:11:10.225Z,41.33
2022-12-16T00:13:38.734Z,36.97
2022-12-16T00:16:07.170Z,42.30
2022-12-16T00:18:35.068Z,43.53
2022-12-16T00:21:02.541Z,38.90
2022-12-16T00:23:30.321Z,36.00
2022-12-16T00:25:57.185Z,37.67
2022-12-16T00:28:24.030Z,35.97
2022-12-16T00:30:53.190Z,34.23
2022-12-16T00:33:24.581Z,38.43
2022-12-16T00:35:52.612Z,37.03
2022-12-16T00:38:20.707Z,41.07
2022-12-16T00:40:47.269Z,38.50
2022-12-16T00:43:13.984Z,35.07
2022-12-16T00:45:40.712Z,35.53
2022-12-16T00:48:08.261Z,34.93
2022-12-16T00:50:35.597Z,34.90
2022-12-16T00:53:02.814Z,34.43
2022-12-16T00:55:29.380Z,35.50
2022-12-16T00:57:55.860Z,35.40
2022-12-16T01:00:23.776Z,36.33
2022-12-16T01:02:51.717Z,36.70
2022-12-16T01:05:21.916Z,33.93
2022-12-16T01:07:48.654Z,33.97
2022-12-16T01:10:15.439Z,33.47
2022-12-16T01:12:42.014Z,35.23
2022-12-16T01:15:10.929Z,36.13
2022-12-16T01:17:37.925Z,37.90
2022-12-16T01:20:04.853Z,36.70
2022-12-16T01:22:32.768Z,32.20
2022-12-16T01:25:00.651Z,36.70
2022-12-16T01:27:28.433Z,35.30
2022-12-16T01:29:55.472Z,37.63
2022-12-16T01:32:22.569Z,35.77
2022-12-16T01:34:55.126Z,35.03
2022-12-16T01:37:23.676Z,36.33
2022-12-16T01:39:50.658Z,36.53
2022-12-16T01:42:20.560Z,34.63
2022-12-16T01:44:51.924Z,36.53
2022-12-16T01:47:27.984Z,36.00
2022-12-16T01:50:00.428Z,36.43
2022-12-16T01:52:43.514Z,33.60
2022-12-16T01:55:16.065Z,37.87
2022-12-16T01:57:49.246Z,35.43
2022-12-16T02:00:16.951Z,36.50
2022-12-16T02:02:46.755Z,36.50
2022-12-16T02:05:21.889Z,35.70
2022-12-16T02:08:18.867Z,36.20
2022-12-16T02:10:45.959Z,36.13
2022-12-16T02:13:49.831Z,36.87
2022-12-16T02:16:26.334Z,32.53
2022-12-16T02:19:10.834Z,35.67
2022-12-16T02:21:53.701Z,37.13
2022-12-16T02:24:38.302Z,35.07
2022-12-16T02:27:26.990Z,39.73
2022-12-16T02:30:02.230Z,40.53
2022-12-16T02:32:40.717Z,34.37
2022-12-16T02:35:25.466Z,37.90
2022-12-16T02:38:26.219Z,39.30
2022-12-16T02:41:02.911Z,37.47
2022-12-16T02:43:53.571Z,39.23
2022-12-16T02:46:24.031Z,36.23
2022-12-16T02:48:50.739Z,33.50
2022-12-16T02:51:18.035Z,35.73
2022-12-16T02:53:46.801Z,38.87
2022-12-16T02:56:25.723Z,36.73
2022-12-16T02:58:57.926Z,37.67
2022-12-16T03:02:02.250Z,36.73
2022-12-16T03:04:43.421Z,36.10
2022-12-16T03:07:14.726Z,37.67
2022-12-16T03:09:43.943Z,38.23
2022-12-16T03:12:14.494Z,37.67
2022-12-16T03:14:45.346Z,37.80
2022-12-16T03:17:14.609Z,32.90
2022-12-16T03:19:46.215Z,42.23
2022-12-16T03:22:20.296Z,34.80
2022-12-16T03:24:47.281Z,36.73
2022-12-16T03:27:44.785Z,39.40
2022-12-16T03:30:22.260Z,36.27
2022-12-16T03:32:59.936Z,38.77
2022-12-16T03:35:49.683Z,34.53
2022-12-16T03:38:17.165Z,38.33
2022-12-16T03:40:44.775Z,42.20
2022-12-16T03:43:16.218Z,36.47
2022-12-16T03:45:46.026Z,39.13
2022-12-16T03:48:13.966Z,37.03
2022-12-16T03:50:41.027Z,36.33
2022-12-16T03:53:08.522Z,39.53
2022-12-16T03:55:35.254Z,39.33
2022-12-16T03:58:01.939Z,40.23
2022-12-16T04:00:28.486Z,39.13
2022-12-16T04:02:55.164Z,36.73
2022-12-16T04:05:22.346Z,40.93
2022-12-16T04:07:49.040Z,42.23
2022-12-16T04:10:15.682Z,37.93
2022-12-16T04:13:01.077Z,42.60
2022-12-16T04:15:46.424Z,37.40
2022-12-16T04:18:35.351Z,38.73
2022-12-16T04:21:21.665Z,37.83
2022-12-16T04:24:13.717Z,39.77
2022-12-16T04:26:58.366Z,36.53
2022-12-16T04:29:25.613Z,35.27
2022-12-16T04:31:52.444Z,38.30
2022-12-16T04:34:29.434Z,38.80
2022-12-16T04:37:19.375Z,40.07
2022-12-16T04:40:04.850Z,41.20
2022-12-16T04:42:50.658Z,38.97
2022-12-16T04:45:36.805Z,41.63
2022-12-16T04:48:22.202Z,37.27
2022-12-16T04:51:06.921Z,42.03
2022-12-16T04:53:51.769Z,36.43
2022-12-16T04:56:36.597Z,43.00
2022-12-16T04:59:21.461Z,40.90
2022-12-16T05:02:06.923Z,40.77
2022-12-16T05:04:52.453Z,36.77
2022-12-16T05:07:38.749Z,42.37
2022-12-16T05:10:25.081Z,38.33
2022-12-16T05:13:12.532Z,46.27
2022-12-16T05:15:58.584Z,40.83
2022-12-16T05:18:43.665Z,38.95
2022-12-16T05:21:28.798Z,39.20
2022-12-16T05:24:13.749Z,40.87
2022-12-16T05:26:58.540Z,39.70
2022-12-16T05:29:43.417Z,39.30
2022-12-16T05:32:28.317Z,42.00
2022-12-16T05:35:13.234Z,37.07
2022-12-16T05:37:58.114Z,41.43
2022-12-16T05:40:43.192Z,46.27
2022-12-16T05:43:28.110Z,38.37
2022-12-16T05:46:13.081Z,40.47
2022-12-16T05:48:58.324Z,49.17
2022-12-16T05:51:43.374Z,42.93
2022-12-16T05:54:28.368Z,45.63
2022-12-16T05:57:13.116Z,41.43
2022-12-16T05:59:58.132Z,45.57
2022-12-16T06:02:43.183Z,45.10
2022-12-16T06:05:28.480Z,47.10
2022-12-16T06:08:13.321Z,46.17
2022-12-16T06:10:58.389Z,53.47
2022-12-16T06:13:43.258Z,49.87
2022-12-16T06:16:28.686Z,48.00
2022-12-16T06:19:13.781Z,42.30
2022-12-16T06:21:58.775Z,45.60
2022-12-16T06:24:44.159Z,42.53
2022-12-16T06:27:28.950Z,43.77
2022-12-16T06:30:13.954Z,43.63
2022-12-16T06:33:00.933Z,41.33
2022-12-16T06:35:46.157Z,39.63
2022-12-16T06:38:31.173Z,36.63
2022-12-16T06:41:16.012Z,44.03
2022-12-16T06:44:00.987Z,38.17
2022-12-16T06:46:45.895Z,35.43
2022-12-16T06:49:30.835Z,42.03
2022-12-16T06:52:20.143Z,35.57
2022-12-16T06:55:04.975Z,38.67
2022-12-16T06:57:49.922Z,37.47
2022-12-16T07:00:35.331Z,39.50
2022-12-16T07:03:20.273Z,39.17
2022-12-16T07:06:05.306Z,40.83
2022-12-16T07:08:50.433Z,41.00
2022-12-16T07:11:35.470Z,41.40
2022-12-16T07:14:20.892Z,37.13
2022-12-16T07:17:05.808Z,36.57
2022-12-16T07:19:50.549Z,36.67
2022-12-16T07:22:35.540Z,37.53
2022-12-16T07:25:20.314Z,41.47
2022-12-16T07:28:10.727Z,37.40
2022-12-16T07:31:00.889Z,41.20
2022-12-16T07:33:45.691Z,42.60
2022-12-16T07:36:30.704Z,40.70
2022-12-16T07:39:15.603Z,39.00
2022-12-16T07:42:00.595Z,38.23
2022-12-16T07:44:45.568Z,42.57
2022-12-16T07:47:31.196Z,36.57
2022-12-16T07:50:16.415Z,38.23
2022-12-16T07:53:01.737Z,34.13
2022-12-16T07:55:46.565Z,38.60
2022-12-16T07:58:31.603Z,39.63
2022-12-16T08:01:16.479Z,39.13
2022-12-16T08:04:01.838Z,38.23
2022-12-16T08:06:47.164Z,34.87
2022-12-16T08:09:32.227Z,38.30
2022-12-16T08:12:17.223Z,36.73
2022-12-16T08:15:02.257Z,37.90
2022-12-16T08:17:47.220Z,37.23
2022-12-16T08:20:32.236Z,35.87
2022-12-16T08:23:17.056Z,33.03
2022-12-16T08:26:01.946Z,38.43
2022-12-16T08:28:46.909Z,41.73
2022-12-16T08:31:31.759Z,34.40
2022-12-16T08:34:16.678Z,38.83
2022-12-16T08:37:01.679Z,37.60
2022-12-16T08:39:51.352Z,34.97
2022-12-16T08:42:49.647Z,36.50
2022-12-16T08:45:35.354Z,33.47
2022-12-16T08:48:20.205Z,37.40
2022-12-16T08:51:05.628Z,33.93
2022-12-16T08:53:51.497Z,36.43
2022-12-16T08:56:36.474Z,39.43
2022-12-16T08:59:21.935Z,40.30
2022-12-16T09:02:07.396Z,42.20
2022-12-16T09:04:52.925Z,37.27
2022-12-16T09:07:40.627Z,43.90
2022-12-16T09:10:26.073Z,48.73
2022-12-16T09:13:11.005Z,36.97
2022-12-16T09:15:56.055Z,44.13
2022-12-16T09:18:41.758Z,36.53
2022-12-16T09:21:31.722Z,45.10
2022-12-16T09:24:18.096Z,44.13
2022-12-16T09:27:03.287Z,41.70
2022-12-16T09:29:48.018Z,38.80
2022-12-16T09:32:33.286Z,47.87
2022-12-16T09:35:18.278Z,41.13
2022-12-16T09:38:07.280Z,38.53
2022-12-16T09:40:52.268Z,45.53
2022-12-16T09:44:00.724Z,53.90
2022-12-16T09:47:14.116Z,49.00
2022-12-16T09:50:04.975Z,49.30
2022-12-16T09:53:01.454Z,53.47
2022-12-16T09:55:59.095Z,47.10
2022-12-16T09:58:49.312Z,54.87
2022-12-16T10:01:34.711Z,57.20
2022-12-16T10:04:20.081Z,57.97
2022-12-16T10:07:26.537Z,62.00
2022-12-16T10:10:26.202Z,67.20
2022-12-16T10:13:38.709Z,70.57
2022-12-16T10:17:02.294Z,72.93
2022-12-16T10:20:09.202Z,62.97
2022-12-16T10:23:32.509Z,75.97
2022-12-16T10:26:46.808Z,76.33
2022-12-16T10:29:38.234Z,70.70
2022-12-16T10:33:04.057Z,65.93
2022-12-16T10:36:04.146Z,59.60
2022-12-16T10:38:57.660Z,67.40
2022-12-16T10:41:46.759Z,66.17
2022-12-16T10:44:41.811Z,61.33
2022-12-16T10:47:32.176Z,63.47
2022-12-16T10:50:17.629Z,57.67
2022-12-16T10:53:24.031Z,54.97
2022-12-16T10:56:18.415Z,64.40
2022-12-16T10:59:05.699Z,60.90
2022-12-16T11:01:50.704Z,61.03
2022-12-16T11:04:55.934Z,59.47
2022-12-16T11:07:55.760Z,62.50
2022-12-16T11:10:49.830Z,66.87
2022-12-16T11:13:37.780Z,78.83
2022-12-16T11:16:28.443Z,81.37
2022-12-16T11:19:13.680Z,72.43
2022-12-16T11:21:59.359Z,71.40
2022-12-16T11:24:44.909Z,66.50
2022-12-16T11:27:44.040Z,76.37
2022-12-16T11:30:32.010Z,71.17
2022-12-16T11:33:44.129Z,82.83
2022-12-16T11:36:51.028Z,87.87
2022-12-16T11:39:40.615Z,82.20
2022-12-16T11:42:29.658Z,84.00
2022-12-16T11:45:19.672Z,78.93
2022-12-16T11:48:08.797Z,74.03
2022-12-16T11:50:59.037Z,74.83
2022-12-16T11:54:05.007Z,77.27
2022-12-16T11:57:00.102Z,79.10
2022-12-16T12:00:08.345Z,78.93
2022-12-16T12:03:01.433Z,81.10
2022-12-16T12:06:10.922Z,77.87
2022-12-16T12:09:16.388Z,87.67
2022-12-16T12:12:09.951Z,106.07
2022-12-16T12:15:02.422Z,108.70
2022-12-16T12:18:03.602Z,108.80
2022-12-16T12:20:55.863Z,98.73
2022-12-16T12:23:57.121Z,94.33
2022-12-16T12:26:51.698Z,91.63
2022-12-16T12:29:49.944Z,75.47
2022-12-16T12:32:44.556Z,81.03
2022-12-16T12:35:38.896Z,88.30
2022-12-16T12:38:30.415Z,80.93
2022-12-16T12:41:34.102Z,76.77
2022-12-16T12:44:48.551Z,86.90
2022-12-16T12:47:36.216Z,86.53
2022-12-16T12:50:31.735Z,92.90
2022-12-16T12:53:42.904Z,96.60
2022-12-16T12:56:35.435Z,87.53
2022-12-16T12:59:30.452Z,99.80
2022-12-16T13:02:17.341Z,91.73
2022-12-16T13:05:03.128Z,90.17
2022-12-16T13:07:50.654Z,101.90
2022-12-16T13:10:38.578Z,107.37
2022-12-16T13:13:36.876Z,118.83
2022-12-16T13:16:25.528Z,109.70
2022-12-16T13:19:48.545Z,106.33
2022-12-16T13:22:55.392Z,101.83
2022-12-16T13:26:11.858Z,116.80
2022-12-16T13:29:00.105Z,97.50
2022-12-16T13:31:47.740Z,105.23
2022-12-16T13:34:32.949Z,104.37
2022-12-16T13:37:26.984Z,104.40
2022-12-16T13:40:22.886Z,103.00
2022-12-16T13:43:10.644Z,119.10
2022-12-16T13:46:23.047Z,102.57
2022-12-16T13:49:08.825Z,104.97
2022-12-16T13:51:56.694Z,112.17
2022-12-16T13:55:03.079Z,117.60
2022-12-16T13:57:54.178Z,107.23
2022-12-16T14:00:44.316Z,110.37
2022-12-16T14:04:01.315Z,118.37
2022-12-16T14:06:49.121Z,124.13
2022-12-16T14:09:56.578Z,129.83
2022-12-16T14:13:08.578Z,130.33
2022-12-16T14:16:06.689Z,140.40
2022-12-16T14:19:01.182Z,128.50
2022-12-16T14:21:56.712Z,145.23
2022-12-16T14:24:46.536Z,159.73
2022-12-16T14:27:37.508Z,160.03
2022-12-16T14:30:38.825Z,155.27
2022-12-16T14:33:44.519Z,140.33
2022-12-16T14:36:57.748Z,151.93
2022-12-16T14:39:48.771Z,157.57
2022-12-16T14:42:47.835Z,132.93
2022-12-16T14:45:40.745Z,144.73
2022-12-16T14:48:57.415Z,150.70
2022-12-16T14:51:48.098Z,151.80
2022-12-16T14:54:42.307Z,155.77
2022-12-16T14:57:36.233Z,152.60
2022-12-16T15:00:27.378Z,157.23
2022-12-16T15:03:21.575Z,141.83
2022-12-16T15:06:09.243Z,142.73
2022-12-16T15:09:09.805Z,143.33
2022-12-16T15:11:55.663Z,149.60
2022-12-16T15:14:51.136Z,145.57
2022-12-16T15:17:40.628Z,156.63
2022-12-16T15:20:39.789Z,149.77
2022-12-16T15:23:38.414Z,160.67
2022-12-16T15:26:25.399Z,144.33
2022-12-16T15:29:10.786Z,167.70
2022-12-16T15:32:06.126Z,173.20
2022-12-16T15:35:07.965Z,161.47
2022-12-16T15:38:04.243Z,156.57
2022-12-16T15:40:52.304Z,145.67
2022-12-16T15:43:48.561Z,150.67
2022-12-16T15:46:36.494Z,146.57
2022-12-16T15:49:22.656Z,157.83
2022-12-16T15:52:09.892Z,161.67
2022-12-16T15:55:12.091Z,158.67
2022-12-16T15:57:58.046Z,143.60
2022-12-16T16:00:47.132Z,137.47
2022-12-16T16:03:39.666Z,137.40
2022-12-16T16:06:34.603Z,136.63
2022-12-16T16:09:20.073Z,131.17
2022-12-16T16:12:04.987Z,122.93
2022-12-16T16:14:49.877Z,124.60
2022-12-16T16:17:40.869Z,135.63
2022-12-16T16:20:32.854Z,136.13
2022-12-16T16:23:18.251Z,148.07
2022-12-16T16:26:05.269Z,154.87
2022-12-16T16:28:50.702Z,137.27
2022-12-16T16:31:36.083Z,128.40
2022-12-16T16:34:21.870Z,134.13
2022-12-16T16:37:12.383Z,140.57
2022-12-16T16:40:14.605Z,142.07
2022-12-16T16:42:59.633Z,124.27
2022-12-16T16:45:44.494Z,138.73
2022-12-16T16:48:33.002Z,139.93
2022-12-16T16:51:19.017Z,165.87
2022-12-16T16:54:04.421Z,142.20
2022-12-16T16:56:52.187Z,151.83
2022-12-16T16:59:42.722Z,151.93
2022-12-16T17:02:41.351Z,138.23
2022-12-16T17:05:31.184Z,146.23
2022-12-16T17:08:16.599Z,143.97
2022-12-16T17:11:02.635Z,139.80
2022-12-16T17:13:47.559Z,151.20
2022-12-16T17:16:34.149Z,152.47
2022-12-16T17:19:22.897Z,153.67
2022-12-16T17:22:08.491Z,131.07
2022-12-16T17:24:54.541Z,114.70
2022-12-16T17:27:43.258Z,110.67
2022-12-16T17:30:40.696Z,130.23
2022-12-16T17:33:28.558Z,123.27
2022-12-16T17:36:13.471Z,132.37
2022-12-16T17:39:00.844Z,135.40
2022-12-16T17:41:47.338Z,139.83
2022-12-16T17:44:33.189Z,163.53
2022-12-16T17:47:18.131Z,139.10
2022-12-16T17:50:03.653Z,139.33
2022-12-16T17:52:49.319Z,136.00
2022-12-16T17:55:34.874Z,140.37
2022-12-16T17:58:19.846Z,142.87
2022-12-16T18:01:04.781Z,139.17
2022-12-16T18:03:49.700Z,141.57
2022-12-16T18:06:34.958Z,145.90
2022-12-16T18:09:19.826Z,132.63
2022-12-16T18:12:04.903Z,147.70
2022-12-16T18:14:49.770Z,149.33
2022-12-16T18:17:35.136Z,143.60
2022-12-16T18:20:20.517Z,142.50
2022-12-16T18:23:05.683Z,143.50
2022-12-16T18:25:50.441Z,177.97
2022-12-16T18:28:35.745Z,161.97
2022-12-16T18:31:24.177Z,141.40
2022-12-16T18:34:09.574Z,138.57
2022-12-16T18:36:54.946Z,144.00
2022-12-16T18:39:39.925Z,152.53
2022-12-16T18:42:24.750Z,154.17
2022-12-16T18:45:09.738Z,143.93
2022-12-16T18:47:54.738Z,146.37
2022-12-16T18:50:39.730Z,159.80
2022-12-16T18:53:25.642Z,173.87
2022-12-16T18:56:25.756Z,153.33
2022-12-16T18:59:11.768Z,153.17
2022-12-16T19:01:57.305Z,139.87
2022-12-16T19:04:43.065Z,163.07
2022-12-16T19:07:31.707Z,167.27
2022-12-16T19:10:18.879Z,151.87
2022-12-16T19:13:03.654Z,147.73
2022-12-16T19:15:48.712Z,151.03
2022-12-16T19:18:33.912Z,155.93
2022-12-16T19:21:19.652Z,158.63
2022-12-16T19:24:07.174Z,161.73
2022-12-16T19:26:52.477Z,143.73
2022-12-16T19:29:41.770Z,161.37
2022-12-16T19:32:26.866Z,156.23
2022-12-16T19:35:12.072Z,155.07
2022-12-16T19:37:57.119Z,152.17
2022-12-16T19:40:42.203Z,145.53
2022-12-16T19:43:27.651Z,143.07
2022-12-16T19:46:14.316Z,155.53
2022-12-16T19:48:59.402Z,152.00
2022-12-16T19:51:45.014Z,131.23
2022-12-16T19:54:29.941Z,153.60
2022-12-16T19:57:22.388Z,152.57
2022-12-16T20:00:07.352Z,151.83
2022-12-16T20:02:52.469Z,158.43
2022-12-16T20:05:38.715Z,171.10
2022-12-16T20:08:23.709Z,146.53
2022-12-16T20:11:08.501Z,145.43
2022-12-16T20:13:56.000Z,144.13
2022-12-16T20:16:41.137Z,149.83
2022-12-16T20:19:25.982Z,138.47
2022-12-16T20:22:14.564Z,135.33
2022-12-16T20:25:01.717Z,141.23
2022-12-16T20:27:47.020Z,157.63
2022-12-16T20:30:32.010Z,147.87
2022-12-16T20:33:16.889Z,154.77
2022-12-16T20:36:01.936Z,153.73
2022-12-16T20:38:46.843Z,156.10
2022-12-16T20:41:31.749Z,149.50
2022-12-16T20:44:16.576Z,156.07
2022-12-16T20:47:01.490Z,147.90
2022-12-16T20:49:46.265Z,141.97
2022-12-16T20:52:31.368Z,147.83
2022-12-16T20:55:16.222Z,163.20
2022-12-16T20:58:01.447Z,150.40
2022-12-16T21:00:46.461Z,144.17
2022-12-16T21:03:31.718Z,146.00
2022-12-16T21:06:16.696Z,133.83
2022-12-16T21:09:01.687Z,133.43
2022-12-16T21:11:47.542Z,155.50
2022-12-16T21:14:32.472Z,148.97
2022-12-16T21:17:17.453Z,135.37
2022-12-16T21:20:02.354Z,153.13
2022-12-16T21:22:47.204Z,134.33
2022-12-16T21:25:32.703Z,138.23
2022-12-16T21:28:18.273Z,135.37
2022-12-16T21:31:03.203Z,116.00
2022-12-16T21:33:49.099Z,115.10
2022-12-16T21:36:34.342Z,134.60
2022-12-16T21:39:19.267Z,132.90
2022-12-16T21:42:04.575Z,122.57
2022-12-16T21:44:49.537Z,134.37
2022-12-16T21:47:34.458Z,126.13
2022-12-16T21:50:19.484Z,122.60
2022-12-16T21:53:06.921Z,123.30
2022-12-16T21:55:52.194Z,118.10
2022-12-16T21:58:37.578Z,119.27
2022-12-16T22:01:23.135Z,125.30
2022-12-16T22:04:08.430Z,113.77
2022-12-16T22:06:54.870Z,123.43
2022-12-16T22:09:40.227Z,113.97
2022-12-16T22:12:25.154Z,111.80
2022-12-16T22:15:10.122Z,119.80
2022-12-16T22:17:58.485Z,120.80
2022-12-16T22:20:44.713Z,113.17
2022-12-16T22:23:29.599Z,103.30
2022-12-16T22:26:18.554Z,119.10
2022-12-16T22:29:03.846Z,116.37
2022-12-16T22:31:48.810Z,118.83
2022-12-16T22:34:34.300Z,129.17
2022-12-16T22:37:33.020Z,131.23
2022-12-16T22:40:17.990Z,125.53
2022-12-16T22:43:02.987Z,128.27
2022-12-16T22:45:47.871Z,133.40
2022-12-16T22:48:34.639Z,103.23
2022-12-16T22:51:19.460Z,102.13
2022-12-16T22:54:07.408Z,90.93
2022-12-16T22:56:52.408Z,103.87
2022-12-16T22:59:41.244Z,105.73
2022-12-16T23:02:26.146Z,112.50
2022-12-16T23:05:11.150Z,105.40
2022-12-16T23:08:09.649Z,114.13
2022-12-16T23:10:54.583Z,104.10
2022-12-16T23:13:43.304Z,109.60
2022-12-16T23:16:28.701Z,93.30
2022-12-16T23:19:13.932Z,94.97
2022-12-16T23:21:58.862Z,97.27
2022-12-16T23:24:43.890Z,100.50
2022-12-16T23:27:28.637Z,97.90
2022-12-16T23:30:13.624Z,109.63
2022-12-16T23:32:58.571Z,97.47
2022-12-16T23:35:43.452Z,86.43
2022-12-16T23:38:48.651Z,101.13
2022-12-16T23:41:33.983Z,109.73
2022-12-16T23:44:19.292Z,103.27
2022-12-16T23:47:04.286Z,106.27
2022-12-16T23:49:49.264Z,107.00
2022-12-16T23:52:34.630Z,99.80
2022-12-16T23:55:19.451Z,92.03
2022-12-16T23:58:04.449Z,96.50
